Time;durP1;ratioP1;P1;durP2;ratioP2;P2;SDS_P1;SDS_P2;PMS_P1;PMS_P2;Temp;Humidity;BMP_temperature;BMP_pressure;BME280_temperature;BME280_humidity;BME280_pressure;Samples;Min_cycle;Max_cycle;Signal;HPM_P1;HPM_P2
2021/03/11 00:01:10;;;;;;;31.13;20.93;;;;;;;-144.99;100.00;52321.72;5090175;28;20646;-74
2021/03/11 00:03:36;;;;;;;30.23;20.53;;;;;;;-144.99;100.00;52291.16;5086038;28;20623;-72
2021/03/11 00:06:02;;;;;;;26.70;19.20;;;;;;;-144.99;100.00;52317.66;5091669;28;20735;-73
2021/03/11 00:08:28;;;;;;;30.17;19.60;;;;;;;-144.99;100.00;52305.41;5096346;28;21012;-74
2021/03/11 00:10:54;;;;;;;28.63;21.73;;;;;;;-144.99;100.00;52311.53;5092193;28;20721;-74
2021/03/11 00:13:20;;;;;;;30.63;21.63;;;;;;;-144.99;100.00;52338.03;5092838;28;20266;-74
2021/03/11 00:15:46;;;;;;;36.40;23.83;;;;;;;-144.99;100.00;52303.38;5090226;28;20642;-72
2021/03/11 00:18:13;;;;;;;37.47;21.67;;;;;;;-144.99;100.00;52289.13;5092542;28;20703;-72
2021/03/11 00:20:40;;;;;;;29.23;20.90;;;;;;;-144.99;100.00;52317.66;5091469;28;20663;-72
2021/03/11 00:23:06;;;;;;;28.63;19.70;;;;;;;-144.99;100.00;52301.34;5092835;28;20622;-73
2021/03/11 00:25:34;;;;;;;30.07;21.33;;;;;;;-144.99;100.00;52307.47;5091249;28;20642;-73
2021/03/11 00:28:01;;;;;;;28.67;20.47;;;;;;;-144.99;100.00;52329.88;5092031;28;20993;-72
2021/03/11 00:30:27;;;;;;;39.13;22.40;;;;;;;-144.99;100.00;52299.31;5089472;28;20631;-72
2021/03/11 00:32:54;;;;;;;30.90;21.07;;;;;;;-144.99;100.00;52272.81;5092672;28;21308;-72
2021/03/11 00:35:21;;;;;;;33.07;22.73;;;;;;;-144.99;100.00;52333.94;5090319;28;20699;-71
2021/03/11 00:37:48;;;;;;;32.43;20.33;;;;;;;-144.99;100.00;52342.09;5090463;28;20622;-71
2021/03/11 00:40:17;;;;;;;30.63;22.77;;;;;;;-144.99;100.00;52329.88;5089595;28;20689;-72
2021/03/11 00:42:43;;;;;;;27.80;21.63;;;;;;;-144.99;100.00;52307.47;5091372;28;20772;-72
2021/03/11 00:45:11;;;;;;;31.03;23.03;;;;;;;-144.99;100.00;52362.50;5087886;28;20632;-72
2021/03/11 00:47:38;;;;;;;31.80;22.17;;;;;;;-144.99;100.00;52303.38;5089994;28;20607;-71
2021/03/11 00:50:05;;;;;;;30.20;23.17;;;;;;;-144.99;100.00;52346.19;5094013;28;20618;-72
2021/03/11 00:52:32;;;;;;;29.30;21.50;;;;;;;-144.99;100.00;52313.56;5090923;28;20618;-71
2021/03/11 00:54:58;;;;;;;34.87;22.17;;;;;;;-144.99;100.00;52293.19;5090190;28;20620;-72
2021/03/11 00:57:24;;;;;;;38.83;24.60;;;;;;;-144.99;100.00;52329.88;5090120;28;21479;-72
2021/03/11 00:59:50;;;;;;;31.90;24.10;;;;;;;-144.99;100.00;52301.34;5089292;28;20200;-72
2021/03/11 01:02:16;;;;;;;30.83;23.27;;;;;;;-144.99;100.00;52285.03;5091189;28;20658;-71
2021/03/11 01:04:42;;;;;;;34.93;23.97;;;;;;;-144.99;100.00;52323.75;5083025;28;20199;-71
2021/03/11 01:07:08;;;;;;;31.97;21.90;;;;;;;-144.99;100.00;61100.13;5090357;28;20674;-71
2021/03/11 01:09:35;;;;;;;27.83;19.87;;;;;;;-144.99;100.00;61100.13;5091034;28;20688;-72
2021/03/11 01:12:01;;;;;;;29.00;21.13;;;;;;;-144.99;100.00;61100.13;5091075;28;20280;-72
2021/03/11 01:14:27;;;;;;;26.83;20.83;;;;;;;-144.99;100.00;61100.13;5089545;28;21204;-72
2021/03/11 01:16:53;;;;;;;28.43;21.07;;;;;;;-144.99;100.00;61100.13;5090334;28;20695;-71
2021/03/11 01:19:20;;;;;;;27.77;22.57;;;;;;;-144.99;100.00;61100.13;5090174;28;20602;-71
2021/03/11 01:21:46;;;;;;;30.03;21.50;;;;;;;-144.99;100.00;61100.13;5090440;28;20624;-71
2021/03/11 01:24:13;;;;;;;30.40;22.03;;;;;;;-144.99;100.00;61100.13;5090489;28;20647;-72
2021/03/11 01:26:39;;;;;;;25.63;18.97;;;;;;;-144.99;100.00;61100.13;5089303;28;20711;-71
2021/03/11 01:29:06;;;;;;;26.83;18.63;;;;;;;-144.99;100.00;61100.13;5089766;28;20661;-71
2021/03/11 01:31:32;;;;;;;28.37;19.97;;;;;;;-144.99;100.00;61100.13;5086889;28;20695;-71
2021/03/11 01:33:58;;;;;;;26.97;21.00;;;;;;;-144.99;100.00;61100.13;5090358;28;21075;-71
2021/03/11 01:36:24;;;;;;;26.53;18.97;;;;;;;-144.99;100.00;61100.13;5090251;28;20227;-72
2021/03/11 01:38:50;;;;;;;27.33;19.03;;;;;;;-144.99;100.00;61100.13;5090360;28;20618;-71
2021/03/11 01:41:16;;;;;;;25.80;19.33;;;;;;;-144.99;100.00;61100.13;5089398;28;20649;-71
2021/03/11 01:43:42;;;;;;;26.47;18.50;;;;;;;-144.99;100.00;61100.13;5090119;28;20196;-72
2021/03/11 01:46:08;;;;;;;23.50;17.97;;;;;;;-144.99;100.00;61100.13;5087838;28;20224;-72
2021/03/11 01:48:34;;;;;;;25.77;18.90;;;;;;;-144.99;100.00;61100.13;5090083;28;20625;-72
2021/03/11 01:51:02;;;;;;;22.60;18.23;;;;;;;-144.99;100.00;61100.13;5090419;28;20606;-72
2021/03/11 01:53:29;;;;;;;23.90;16.83;;;;;;;-144.99;100.00;61100.13;5090512;28;20630;-72
2021/03/11 01:55:55;;;;;;;27.53;20.73;;;;;;;-144.99;100.00;61100.13;5093187;28;20992;-72
2021/03/11 01:58:21;;;;;;;26.73;19.23;;;;;;;-144.99;100.00;61100.13;5092781;28;20652;-73
2021/03/11 02:00:48;;;;;;;27.47;20.27;;;;;;;-144.99;100.00;61100.13;5091316;28;20614;-73
2021/03/11 02:03:15;;;;;;;24.53;17.43;;;;;;;-144.99;100.00;61100.13;5094267;28;20660;-73
2021/03/11 02:05:41;;;;;;;24.60;16.50;;;;;;;-144.99;100.00;61100.13;5093519;28;20660;-73
2021/03/11 02:10:46;;;;;;;26.47;19.80;;;;;;;-144.99;100.00;61100.13;5086831;28;20680;-74
2021/03/11 02:13:28;;;;;;;22.50;17.77;;;;;;;-144.99;100.00;61100.13;5092694;28;21020;-74
2021/03/11 02:16:02;;;;;;;24.90;18.07;;;;;;;-144.99;100.00;61100.13;5089211;28;20614;-74
2021/03/11 02:18:33;;;;;;;24.60;17.63;;;;;;;-144.99;100.00;61100.13;5092671;28;20615;-74
2021/03/11 02:21:03;;;;;;;23.77;18.47;;;;;;;-144.99;100.00;61100.13;5091942;28;20660;-74
2021/03/11 02:24:03;;;;;;;25.40;18.63;;;;;;;-144.99;100.00;61100.13;5090047;28;20626;-74
2021/03/11 02:26:57;;;;;;;27.40;18.47;;;;;;;-144.99;100.00;61100.13;5088278;28;20765;-74
2021/03/11 02:29:27;;;;;;;23.50;18.53;;;;;;;-144.99;100.00;61100.13;5090007;28;20638;-75
2021/03/11 02:31:55;;;;;;;27.90;18.90;;;;;;;-144.99;100.00;61100.13;5089421;28;20686;-74
2021/03/11 02:34:24;;;;;;;25.03;17.13;;;;;;;-144.99;100.00;61100.13;5092403;28;20670;-74
2021/03/11 02:36:54;;;;;;;26.20;17.20;;;;;;;-144.99;100.00;61100.13;5090502;28;20621;-75
2021/03/11 02:39:22;;;;;;;26.43;18.10;;;;;;;-144.99;100.00;61100.13;5091082;28;20672;-74
2021/03/11 02:41:51;;;;;;;25.17;17.73;;;;;;;-144.99;100.00;61100.13;5091573;28;20642;-74
2021/03/11 02:44:19;;;;;;;25.33;17.40;;;;;;;-144.99;100.00;61100.13;5090943;28;20723;-75
2021/03/11 02:46:47;;;;;;;21.70;16.93;;;;;;;-144.99;100.00;61100.13;5090462;28;20624;-74
2021/03/11 02:49:14;;;;;;;20.97;16.73;;;;;;;-144.99;100.00;61100.13;5091623;28;21211;-73
2021/03/11 02:51:40;;;;;;;22.30;17.50;;;;;;;-144.99;100.00;61100.13;5091582;28;20610;-74
2021/03/11 02:54:07;;;;;;;22.77;17.17;;;;;;;-144.99;100.00;61100.13;5093280;28;20644;-75
2021/03/11 02:56:34;;;;;;;22.20;16.63;;;;;;;-144.99;100.00;61100.13;5092716;28;20625;-74
2021/03/11 02:59:01;;;;;;;24.80;17.30;;;;;;;-144.99;100.00;61100.13;5091454;28;20665;-74
2021/03/11 03:01:28;;;;;;;21.77;16.50;;;;;;;-144.99;100.00;61100.13;5089661;28;20650;-74
2021/03/11 03:03:55;;;;;;;23.47;17.80;;;;;;;-144.99;100.00;61100.13;5092027;28;21171;-74
2021/03/11 03:06:21;;;;;;;26.27;17.43;;;;;;;-144.99;100.00;61100.13;5088963;28;21191;-74
2021/03/11 03:08:49;;;;;;;24.07;17.73;;;;;;;-144.99;100.00;61100.13;5096378;28;20653;-74
2021/03/11 03:11:16;;;;;;;25.07;15.17;;;;;;;-144.99;100.00;61100.13;5090968;28;20633;-72
2021/03/11 03:13:43;;;;;;;21.50;16.00;;;;;;;-144.99;100.00;61100.13;5091499;28;20622;-72
2021/03/11 03:16:11;;;;;;;21.40;17.83;;;;;;;-144.99;100.00;61100.13;5089220;28;20610;-72
2021/03/11 03:18:39;;;;;;;21.53;15.27;;;;;;;-144.99;100.00;61100.13;5090641;28;20648;-72
2021/03/11 03:21:09;;;;;;;20.90;17.17;;;;;;;-144.99;100.00;61100.13;5091075;28;20642;-72
2021/03/11 03:23:35;;;;;;;22.23;18.33;;;;;;;-144.99;100.00;61100.13;5091032;28;20619;-71
2021/03/11 03:26:03;;;;;;;23.23;15.67;;;;;;;-144.99;100.00;61100.13;5090515;28;20629;-73
2021/03/11 03:28:29;;;;;;;23.47;15.40;;;;;;;-144.99;100.00;61100.13;5091007;28;20614;-72
2021/03/11 03:30:55;;;;;;;18.43;14.80;;;;;;;-144.99;100.00;61100.13;5086702;28;20969;-72
2021/03/11 03:33:21;;;;;;;17.57;14.47;;;;;;;-144.99;100.00;61100.13;5090473;28;20636;-74
2021/03/11 03:35:49;;;;;;;19.73;14.00;;;;;;;-144.99;100.00;61100.13;5090758;28;20226;-73
2021/03/11 03:38:16;;;;;;;19.70;14.63;;;;;;;-144.99;100.00;61100.13;5091242;28;20614;-73
2021/03/11 03:40:43;;;;;;;18.20;14.40;;;;;;;-144.99;100.00;61100.13;5089732;28;21042;-74
2021/03/11 03:43:12;;;;;;;21.53;15.63;;;;;;;-144.99;100.00;61100.13;5090774;28;20650;-75
2021/03/11 03:45:40;;;;;;;17.40;14.20;;;;;;;-144.99;100.00;61100.13;5088118;28;20622;-74
2021/03/11 03:48:10;;;;;;;17.97;13.67;;;;;;;-144.99;100.00;61100.13;5091139;28;20614;-74
2021/03/11 03:50:37;;;;;;;16.37;13.10;;;;;;;-144.99;100.00;61100.13;5090377;28;20650;-74
2021/03/11 03:53:08;;;;;;;19.37;13.47;;;;;;;-144.99;100.00;61100.13;5086114;28;20628;-72
2021/03/11 03:55:36;;;;;;;20.10;14.00;;;;;;;-144.99;100.00;61100.13;5089024;28;20719;-72
2021/03/11 03:58:04;;;;;;;18.63;13.37;;;;;;;-144.99;100.00;61100.13;5090855;28;20615;-75
2021/03/11 04:00:31;;;;;;;16.53;12.33;;;;;;;-144.99;100.00;61100.13;5088024;28;20703;-74
2021/03/11 04:03:00;;;;;;;18.13;12.33;;;;;;;-144.99;100.00;61100.13;5087745;28;20649;-74
2021/03/11 04:05:27;;;;;;;20.60;13.73;;;;;;;-144.99;100.00;61100.13;5086781;28;20622;-74
2021/03/11 04:07:54;;;;;;;19.57;13.67;;;;;;;-144.99;100.00;61100.13;5093666;28;20668;-74
2021/03/11 04:10:20;;;;;;;20.07;13.20;;;;;;;-144.99;100.00;61100.13;5090421;28;20661;-73
2021/03/11 04:12:48;;;;;;;23.40;13.93;;;;;;;-144.99;100.00;61100.13;5089913;28;20610;-73
2021/03/11 04:15:14;;;;;;;24.73;15.37;;;;;;;-144.99;100.00;61100.13;5088265;28;20621;-73
2021/03/11 04:17:42;;;;;;;18.43;12.60;;;;;;;-144.99;100.00;61100.13;5089354;28;20792;-73
2021/03/11 04:20:10;;;;;;;20.23;13.83;;;;;;;-144.99;100.00;61100.13;5088929;28;21226;-73
2021/03/11 04:22:37;;;;;;;17.40;13.17;;;;;;;-144.99;100.00;61100.13;5089693;28;20648;-74
2021/03/11 04:25:07;;;;;;;18.33;15.30;;;;;;;-144.99;100.00;61100.13;5089476;28;20616;-73
2021/03/11 04:27:33;;;;;;;19.80;15.47;;;;;;;-144.99;100.00;61100.13;5089379;28;20989;-73
2021/03/11 04:30:00;;;;;;;15.20;13.17;;;;;;;-144.99;100.00;61100.13;5087870;28;20981;-73
2021/03/11 04:32:27;;;;;;;20.03;15.00;;;;;;;-144.99;100.00;61100.13;5090154;28;20633;-73
2021/03/11 04:34:53;;;;;;;21.77;14.50;;;;;;;-144.99;100.00;61100.13;5092868;28;20622;-73
2021/03/11 04:37:19;;;;;;;15.23;11.90;;;;;;;-144.99;100.00;61100.13;5090702;28;20622;-73
2021/03/11 04:39:46;;;;;;;15.00;11.27;;;;;;;-144.99;100.00;61100.13;5088227;28;21000;-73
2021/03/11 04:42:13;;;;;;;16.83;11.63;;;;;;;-144.99;100.00;61100.13;5089630;28;21234;-73
2021/03/11 04:44:41;;;;;;;18.13;12.03;;;;;;;-144.99;100.00;61100.13;5088182;28;20625;-73
2021/03/11 04:47:11;;;;;;;19.03;14.50;;;;;;;-144.99;100.00;61100.13;5089287;28;20622;-73
2021/03/11 04:49:39;;;;;;;16.53;12.00;;;;;;;-144.99;100.00;61100.13;5089170;28;20646;-72
2021/03/11 04:52:06;;;;;;;18.13;13.30;;;;;;;-144.99;100.00;61100.13;5089223;28;20614;-72
2021/03/11 04:54:33;;;;;;;14.60;12.03;;;;;;;-144.99;100.00;61100.13;5088629;28;20618;-72
2021/03/11 04:57:01;;;;;;;16.27;12.60;;;;;;;-144.99;100.00;61100.13;5089068;28;20614;-72
2021/03/11 04:59:27;;;;;;;17.47;13.27;;;;;;;-144.99;100.00;61100.13;5087089;28;20640;-72
2021/03/11 05:01:57;;;;;;;19.47;13.63;;;;;;;-144.99;100.00;61100.13;5089444;28;20727;-72
2021/03/11 05:04:24;;;;;;;17.67;10.90;;;;;;;-144.99;100.00;61100.13;5083485;28;20609;-71
2021/03/11 05:06:50;;;;;;;13.63;11.07;;;;;;;-144.99;100.00;61100.13;5082802;28;20618;-72
2021/03/11 05:09:17;;;;;;;16.33;12.43;;;;;;;-144.99;100.00;61100.13;5094595;28;20722;-73
2021/03/11 05:11:43;;;;;;;16.10;13.20;;;;;;;-144.99;100.00;61100.13;5088981;28;20652;-73
2021/03/11 05:14:09;;;;;;;16.80;11.20;;;;;;;-144.99;100.00;61100.13;5089535;28;21170;-74
2021/03/11 05:16:35;;;;;;;17.63;12.87;;;;;;;-144.99;100.00;61100.13;5088691;28;20622;-73
2021/03/11 05:19:02;;;;;;;13.60;11.37;;;;;;;-144.99;100.00;61100.13;5090325;28;20642;-73
2021/03/11 05:21:30;;;;;;;14.33;11.07;;;;;;;-144.99;100.00;61100.13;5089753;28;20649;-74
2021/03/11 05:23:56;;;;;;;15.53;11.23;;;;;;;-144.99;100.00;61100.13;5090356;28;20723;-72
2021/03/11 05:26:22;;;;;;;13.73;10.50;;;;;;;-144.99;100.00;61100.13;5094645;28;20932;-72
2021/03/11 05:28:48;;;;;;;15.33;11.47;;;;;;;-144.99;100.00;61100.13;5089850;28;20742;-73
2021/03/11 05:31:14;;;;;;;14.40;10.50;;;;;;;-144.99;100.00;61100.13;5086191;28;20203;-73
2021/03/11 05:33:40;;;;;;;15.53;10.57;;;;;;;-144.99;100.00;61100.13;5093668;28;20633;-72
2021/03/11 05:36:07;;;;;;;12.63;9.60;;;;;;;-144.99;100.00;61100.13;5092709;28;20283;-71
2021/03/11 05:38:33;;;;;;;15.10;10.40;;;;;;;-144.99;100.00;61100.13;5093357;28;20233;-72
2021/03/11 05:41:01;;;;;;;19.30;11.63;;;;;;;-144.99;100.00;61100.13;5092438;28;20923;-72
2021/03/11 05:43:28;;;;;;;15.70;12.43;;;;;;;-144.99;100.00;61100.13;5092992;28;20633;-72
2021/03/11 05:45:55;;;;;;;14.10;9.97;;;;;;;-144.99;100.00;61100.13;5089106;28;20624;-72
2021/03/11 05:48:22;;;;;;;13.40;10.60;;;;;;;-144.99;100.00;61100.13;5093041;28;20663;-72
2021/03/11 05:50:52;;;;;;;12.30;9.60;;;;;;;-144.99;100.00;61100.13;5092075;28;21220;-71
2021/03/11 05:53:19;;;;;;;12.60;9.47;;;;;;;-144.99;100.00;61100.13;5092807;28;20622;-72
2021/03/11 05:55:46;;;;;;;10.07;8.13;;;;;;;-144.99;100.00;61100.13;5091558;28;21525;-72
2021/03/11 05:58:18;;;;;;;9.80;8.27;;;;;;;-144.99;100.00;61100.13;5092347;28;20622;-73
2021/03/11 06:00:44;;;;;;;12.53;10.33;;;;;;;-144.99;100.00;61100.13;5089858;28;21069;-74
2021/03/11 06:03:11;;;;;;;13.60;9.30;;;;;;;-144.99;100.00;61100.13;5087582;28;20681;-74
2021/03/11 06:05:38;;;;;;;11.60;9.10;;;;;;;-144.99;100.00;61100.13;5089763;28;20286;-71
2021/03/11 06:08:08;;;;;;;13.33;8.93;;;;;;;-144.99;100.00;61100.13;5096312;28;20622;-73
2021/03/11 06:10:35;;;;;;;16.07;11.07;;;;;;;-144.99;100.00;61100.13;5091685;28;20665;-72
2021/03/11 06:13:03;;;;;;;15.23;9.17;;;;;;;-144.99;100.00;61100.13;5085929;28;20610;-70
2021/03/11 06:15:31;;;;;;;11.83;8.37;;;;;;;-144.99;100.00;61100.13;5089692;28;20656;-71
2021/03/11 06:17:59;;;;;;;14.70;9.90;;;;;;;-144.99;100.00;61100.13;5092055;28;21102;-73
2021/03/11 06:20:26;;;;;;;11.07;8.77;;;;;;;-144.99;100.00;61100.13;5091919;28;20737;-72
2021/03/11 06:22:53;;;;;;;10.00;7.97;;;;;;;-144.99;100.00;61100.13;5092150;28;20654;-74
2021/03/11 06:25:19;;;;;;;12.70;8.67;;;;;;;-144.99;100.00;61100.13;5091867;28;20628;-74
2021/03/11 06:27:45;;;;;;;11.20;8.70;;;;;;;-144.99;100.00;61100.13;5091516;28;20655;-71
2021/03/11 06:30:29;;;;;;;11.73;9.10;;;;;;;-144.99;100.00;61100.13;5089515;28;21106;-72
2021/03/11 06:32:56;;;;;;;12.87;8.30;;;;;;;-144.99;100.00;61100.13;5086057;28;20189;-73
2021/03/11 06:35:22;;;;;;;11.03;8.50;;;;;;;-144.99;100.00;61100.13;5092248;28;20621;-73
2021/03/11 06:37:48;;;;;;;11.97;8.27;;;;;;;-144.99;100.00;61100.13;5091415;28;20660;-70
2021/03/11 06:40:17;;;;;;;11.00;8.67;;;;;;;-144.99;100.00;61100.13;5090617;28;20650;-72
2021/03/11 06:42:44;;;;;;;10.10;7.83;;;;;;;-144.99;100.00;61100.13;5090461;28;20669;-75
2021/03/11 06:45:22;;;;;;;12.60;9.07;;;;;;;-144.99;100.00;61100.13;5089749;28;20614;-72
2021/03/11 06:47:49;;;;;;;11.80;8.23;;;;;;;-144.99;100.00;61100.13;5091147;28;20610;-77
2021/03/11 06:50:16;;;;;;;11.17;8.40;;;;;;;-144.99;100.00;61100.13;5091858;28;21248;-73
2021/03/11 06:53:00;;;;;;;9.87;8.00;;;;;;;-144.99;100.00;61100.13;5097772;28;20652;-79
2021/03/11 06:55:26;;;;;;;11.20;8.70;;;;;;;-144.99;100.00;61100.13;5087271;28;21182;-77
2021/03/11 06:57:52;;;;;;;11.23;8.80;;;;;;;-144.99;100.00;61100.13;5091423;28;20695;-75
2021/03/11 07:00:20;;;;;;;14.37;8.77;;;;;;;-144.99;100.00;61100.13;5088466;28;20217;-75
2021/03/11 07:02:51;;;;;;;9.97;7.97;;;;;;;-144.99;100.00;61100.13;5090002;28;21298;-73
2021/03/11 07:05:19;;;;;;;11.17;9.00;;;;;;;-144.99;100.00;61100.13;5086425;28;21187;-73
2021/03/11 07:07:46;;;;;;;9.57;7.70;;;;;;;-144.99;100.00;61100.13;5094416;28;20626;-74
2021/03/11 07:10:23;;;;;;;11.30;8.87;;;;;;;-144.99;100.00;61100.13;5092125;28;20672;-74
2021/03/11 07:12:50;;;;;;;10.50;9.37;;;;;;;-144.99;100.00;61100.13;5092913;28;20613;-75
2021/03/11 07:15:18;;;;;;;11.73;9.30;;;;;;;-144.99;100.00;61100.13;5089442;28;20314;-76
2021/03/11 07:17:45;;;;;;;9.97;7.40;;;;;;;-144.99;100.00;61100.13;5090797;28;20624;-72
2021/03/11 07:20:13;;;;;;;11.30;8.43;;;;;;;-144.99;100.00;61100.13;5090923;28;20660;-79
2021/03/11 07:22:40;;;;;;;9.70;7.23;;;;;;;-144.99;100.00;61100.13;5091488;28;20637;-71
2021/03/11 07:25:26;;;;;;;10.83;8.60;;;;;;;-144.99;100.00;61100.13;5091404;28;20196;-70
2021/03/11 07:27:53;;;;;;;13.43;9.43;;;;;;;-144.99;100.00;61100.13;5083303;28;21002;-73
2021/03/11 07:30:19;;;;;;;11.70;8.30;;;;;;;-144.99;100.00;61100.13;5086729;28;20299;-73
2021/03/11 07:32:46;;;;;;;11.13;10.00;;;;;;;-144.99;100.00;61100.13;5090932;28;20246;-76
2021/03/11 07:35:17;;;;;;;10.50;8.57;;;;;;;-144.99;100.00;61100.13;5091323;28;20626;-71
2021/03/11 07:37:48;;;;;;;11.47;9.70;;;;;;;-144.99;100.00;61100.13;5092781;28;20614;-72
2021/03/11 07:40:14;;;;;;;11.83;9.27;;;;;;;-144.99;100.00;61100.13;5090145;28;20521;-74
2021/03/11 07:42:41;;;;;;;11.00;8.40;;;;;;;-144.99;100.00;61100.13;5091027;28;20212;-72
2021/03/11 07:45:10;;;;;;;12.23;9.00;;;;;;;-144.99;100.00;61100.13;5089068;28;20300;-74
2021/03/11 07:47:37;;;;;;;13.43;8.97;;;;;;;-144.99;100.00;61100.13;5090333;28;20257;-72
2021/03/11 07:50:04;;;;;;;8.67;7.67;;;;;;;-144.99;100.00;61100.13;5090523;28;20478;-72
2021/03/11 07:52:32;;;;;;;10.63;7.93;;;;;;;-144.99;100.00;61100.13;5091078;28;20472;-75
2021/03/11 07:54:59;;;;;;;10.50;9.23;;;;;;;-144.99;100.00;61100.13;5091029;28;20215;-75
2021/03/11 07:57:26;;;;;;;11.67;8.47;;;;;;;-144.99;100.00;61100.13;5090069;28;20204;-75
2021/03/11 07:59:52;;;;;;;11.73;8.20;;;;;;;-144.99;100.00;61100.13;5087524;28;20238;-77
2021/03/11 08:02:21;;;;;;;10.53;7.80;;;;;;;-144.99;100.00;61100.13;5090845;28;20220;-75
2021/03/11 08:04:48;;;;;;;11.23;7.43;;;;;;;-144.99;100.00;61100.13;5090331;28;20230;-76
2021/03/11 08:07:16;;;;;;;9.60;6.63;;;;;;;-144.99;100.00;61100.13;5094111;28;20359;-72
2021/03/11 08:09:43;;;;;;;11.50;9.00;;;;;;;-144.99;100.00;61100.13;5089522;28;20236;-74
2021/03/11 08:12:37;;;;;;;9.10;7.03;;;;;;;-144.99;100.00;61100.13;5090194;28;20294;-73
2021/03/11 08:15:06;;;;;;;11.67;7.13;;;;;;;-144.99;100.00;61100.13;5111042;22;20660;-73
2021/03/11 08:17:37;;;;;;;9.33;8.30;;;;;;;-144.99;100.00;61100.13;5081480;28;20263;-75
2021/03/11 08:20:05;;;;;;;18.30;9.97;;;;;;;-144.99;100.00;61100.13;5105052;28;20298;-75
2021/03/11 08:23:03;;;;;;;10.20;7.40;;;;;;;-144.99;100.00;61100.13;5093917;28;20732;-75
2021/03/11 08:25:43;;;;;;;7.93;5.73;;;;;;;-144.99;100.00;61100.13;5095024;28;20597;-79
2021/03/11 08:28:48;;;;;;;7.27;5.60;;;;;;;-144.99;100.00;61100.13;5112473;28;20199;-77
2021/03/11 08:31:15;;;;;;;14.23;7.70;;;;;;;-144.99;100.00;61100.13;5098946;28;20200;-78
2021/03/11 08:33:50;;;;;;;11.83;7.73;;;;;;;-144.99;100.00;61100.13;5098453;28;20203;-76
2021/03/11 08:36:39;;;;;;;8.70;7.33;;;;;;;-144.99;100.00;61100.13;5098791;28;20273;-78
2021/03/11 08:39:35;;;;;;;8.13;7.00;;;;;;;-144.99;100.00;61100.13;5102365;28;20694;-78
2021/03/11 08:42:46;;;;;;;13.53;8.10;;;;;;;-144.99;100.00;61100.13;5100089;28;20216;-79
2021/03/11 08:45:34;;;;;;;10.07;7.87;;;;;;;-144.99;100.00;61100.13;5099469;28;20242;-78
2021/03/11 08:48:13;;;;;;;9.80;7.00;;;;;;;-144.99;100.00;61100.13;5100856;28;20216;-77
2021/03/11 08:50:41;;;;;;;10.30;7.30;;;;;;;-144.99;100.00;61100.13;5101342;28;20265;-80
2021/03/11 08:53:08;;;;;;;9.67;6.07;;;;;;;-144.99;100.00;61100.13;5102385;28;20267;-79
2021/03/11 08:55:38;;;;;;;8.57;7.03;;;;;;;-144.99;100.00;61100.13;5092357;28;20220;-77
2021/03/11 08:58:23;;;;;;;11.23;7.07;;;;;;;-144.99;100.00;61100.13;5111412;28;20609;-78
2021/03/11 09:01:03;;;;;;;8.27;7.47;;;;;;;-144.99;100.00;61100.13;5102854;28;20191;-76
2021/03/11 09:03:39;;;;;;;9.03;7.73;;;;;;;-144.99;100.00;61100.13;5091895;28;20296;-79
2021/03/11 09:06:08;;;;;;;11.00;7.37;;;;;;;-144.99;100.00;61100.13;5097627;28;20247;-78
2021/03/11 09:08:35;;;;;;;9.33;6.40;;;;;;;-144.99;100.00;61100.13;5092073;28;20228;-77
2021/03/11 09:11:09;;;;;;;8.33;7.00;;;;;;;-144.99;100.00;61100.13;5098297;28;20188;-76
2021/03/11 09:13:35;;;;;;;8.30;6.80;;;;;;;-144.99;100.00;61100.13;5101011;28;20207;-78
2021/03/11 09:16:02;;;;;;;11.23;8.73;;;;;;;-144.99;100.00;61100.13;5093801;28;20231;-78
2021/03/11 09:18:29;;;;;;;7.60;6.17;;;;;;;-144.99;100.00;61100.13;5102700;28;20257;-76
2021/03/11 09:20:58;;;;;;;9.30;7.70;;;;;;;-144.99;100.00;61100.13;5101885;28;20196;-78
2021/03/11 09:23:33;;;;;;;10.80;7.60;;;;;;;-144.99;100.00;61100.13;5099711;28;20223;-77
2021/03/11 09:25:59;;;;;;;9.63;8.13;;;;;;;-144.99;100.00;61100.13;5094901;28;20538;-76
2021/03/11 09:28:27;;;;;;;9.70;7.33;;;;;;;-144.99;100.00;61100.13;5096902;28;20290;-77
2021/03/11 09:30:53;;;;;;;8.27;7.10;;;;;;;-144.99;100.00;61100.13;5095101;28;20253;-78
2021/03/11 09:33:22;;;;;;;12.53;7.27;;;;;;;-144.99;100.00;61100.13;5101734;28;20253;-79
2021/03/11 09:35:48;;;;;;;7.77;6.80;;;;;;;-144.99;100.00;61100.13;5099879;28;20230;-77
2021/03/11 09:38:19;;;;;;;11.80;8.80;;;;;;;-144.99;100.00;61100.13;5100215;28;20295;-77
2021/03/11 09:40:51;;;;;;;7.80;6.63;;;;;;;-144.99;100.00;61100.13;5105507;28;20327;-80
2021/03/11 09:43:32;;;;;;;8.77;6.90;;;;;;;-144.99;100.00;61100.13;5087580;28;20220;-78
2021/03/11 09:46:01;;;;;;;9.20;6.30;;;;;;;-144.99;100.00;61100.13;5104697;28;20353;-78
2021/03/11 09:51:15;;;;;;;12.37;6.60;;;;;;;-144.99;100.00;61100.13;5106510;28;20242;-78
2021/03/11 09:53:44;;;;;;;12.17;7.70;;;;;;;-144.99;100.00;61100.13;5113088;28;20199;-79
2021/03/11 09:56:13;;;;;;;12.57;6.60;;;;;;;-144.99;100.00;61100.13;5104018;28;20228;-82
2021/03/11 09:58:57;;;;;;;10.33;6.50;;;;;;;-144.99;100.00;61100.13;5101699;28;20276;-78
2021/03/11 10:01:35;;;;;;;8.80;5.70;;;;;;;-144.99;100.00;61100.13;5098159;28;20200;-79
2021/03/11 10:04:23;;;;;;;9.43;5.60;;;;;;;-144.99;100.00;61100.13;5097712;28;20184;-80
2021/03/11 10:07:14;;;;;;;12.93;8.23;;;;;;;-144.99;100.00;61100.13;5114702;28;20184;-78
2021/03/11 10:15:57;;;;;;;13.93;6.47;;;;;;;-144.99;100.00;61100.13;4998677;28;20236;-80
2021/03/11 10:19:08;;;;;;;8.60;5.87;;;;;;;-144.99;100.00;61100.13;5093643;28;20708;-80
2021/03/11 10:25:35;;;;;;;9.83;5.97;;;;;;;-144.99;100.00;61100.13;5096812;28;20223;-82
2021/03/11 10:28:45;;;;;;;9.07;4.77;;;;;;;-144.99;100.00;61100.13;5100811;28;20212;-83
2021/03/11 10:31:23;;;;;;;8.10;6.33;;;;;;;-144.99;100.00;61100.13;5113233;28;20519;-79
2021/03/11 10:34:04;;;;;;;10.33;5.50;;;;;;;-144.99;100.00;61100.13;5102123;28;20692;-78
2021/03/11 10:36:31;;;;;;;11.23;5.73;;;;;;;-144.99;100.00;61100.13;5119595;28;20204;-79
2021/03/11 10:39:09;;;;;;;11.43;7.23;;;;;;;-144.99;100.00;61100.13;5105466;28;20824;-78
2021/03/11 10:41:37;;;;;;;9.03;5.60;;;;;;;-144.99;100.00;61100.13;5112160;28;20224;-77
2021/03/11 10:44:10;;;;;;;7.93;4.30;;;;;;;-144.99;100.00;61100.13;5100668;28;20204;-77
2021/03/11 10:46:48;;;;;;;9.60;3.50;;;;;;;-144.99;100.00;61100.13;5099932;28;20196;-76
2021/03/11 10:49:22;;;;;;;6.63;2.60;;;;;;;-144.99;100.00;61100.13;5095579;28;20215;-78
2021/03/11 10:51:58;;;;;;;4.73;2.23;;;;;;;-144.99;100.00;61100.13;5097706;28;20196;-77
2021/03/11 10:54:38;;;;;;;5.90;2.33;;;;;;;-144.99;100.00;61100.13;5101002;28;20216;-80
2021/03/11 11:00:08;;;;;;;4.80;2.23;;;;;;;-144.99;100.00;61100.13;5101654;28;20200;-79
2021/03/11 11:02:37;;;;;;;6.50;3.13;;;;;;;-144.99;100.00;61100.13;5113054;28;20237;-80
2021/03/11 11:05:04;;;;;;;5.70;2.83;;;;;;;-144.99;100.00;61100.13;5114766;28;20215;-78
2021/03/11 11:07:30;;;;;;;8.20;3.27;;;;;;;-144.99;100.00;61100.13;5115463;28;20256;-80
2021/03/11 11:09:59;;;;;;;11.20;3.97;;;;;;;-144.99;100.00;61100.13;5106152;28;20188;-76
2021/03/11 11:12:25;;;;;;;8.70;2.37;;;;;;;-144.99;100.00;61100.13;5103918;28;20204;-77
2021/03/11 11:14:51;;;;;;;10.13;3.13;;;;;;;-144.99;100.00;61100.13;5112683;28;20231;-79
2021/03/11 11:17:18;;;;;;;12.13;7.43;;;;;;;-144.99;100.00;61100.13;5105259;28;20200;-79
2021/03/11 11:19:45;;;;;;;10.43;3.23;;;;;;;-144.99;100.00;61100.13;5107336;28;20223;-80
2021/03/11 11:22:14;;;;;;;5.70;2.87;;;;;;;-144.99;100.00;61100.13;5107637;28;20287;-79
2021/03/11 11:24:40;;;;;;;11.80;4.30;;;;;;;-144.99;100.00;61100.13;5105163;28;20220;-78
2021/03/11 11:27:09;;;;;;;15.23;3.97;;;;;;;-144.99;100.00;61100.13;5106186;28;20382;-78
2021/03/11 11:29:35;;;;;;;7.67;3.00;;;;;;;-144.99;100.00;61100.13;5103436;28;20204;-78